Time;durP1;ratioP1;P1;durP2;ratioP2;P2;SDS_P1;SDS_P2;PMS_P1;PMS_P2;Temp;Humidity;BMP_temperature;BMP_pressure;BME280_temperature;BME280_humidity;BME280_pressure;Samples;Min_cycle;Max_cycle;Signal;HPM_P1;HPM_P2
2020/12/06 00:04:21;;;;;;;24.63;15.70;;;;;;;9.54;0.00;65763.66;10315607;28;20045;-69
2020/12/06 00:09:19;;;;;;;28.23;18.60;;;;;;;-24.35;0.00;65763.66;10316565;28;20513;-68
2020/12/06 00:14:16;;;;;;;24.67;14.15;;;;;;;9.54;0.00;65763.66;10316932;28;20454;-68
2020/12/06 00:19:14;;;;;;;21.75;13.90;;;;;;;-32.16;0.00;65763.66;10316417;28;20056;-67
2020/12/06 00:24:13;;;;;;;17.85;14.15;;;;;;;-23.04;0.00;65763.66;10316596;28;20079;-67
2020/12/06 00:29:11;;;;;;;18.25;13.38;;;;;;;9.54;0.00;65763.66;10316150;28;20059;-68
2020/12/06 00:34:09;;;;;;;19.75;14.30;;;;;;;-8.71;0.00;65763.66;10323611;28;20072;-68
2020/12/06 00:39:07;;;;;;;18.30;13.93;;;;;;;-8.71;0.00;65763.66;10324464;28;20049;-68
2020/12/06 00:44:05;;;;;;;16.45;12.90;;;;;;;9.54;0.00;65763.66;10323838;28;20115;-68
2020/12/06 00:49:03;;;;;;;19.25;12.60;;;;;;;9.54;0.00;65763.66;10323544;28;20072;-68
2020/12/06 00:54:01;;;;;;;18.90;13.05;;;;;;;-19.13;0.00;65763.66;10322196;28;20049;-68
2020/12/06 00:59:00;;;;;;;19.77;12.18;;;;;;;-25.65;0.00;65763.66;10321898;28;20052;-68
2020/12/06 01:03:58;;;;;;;16.77;11.95;;;;;;;-32.16;0.00;65763.66;10323455;28;20405;-68
2020/12/06 01:08:56;;;;;;;18.10;12.55;;;;;;;-39.98;0.00;65763.66;10323155;28;20049;-68
2020/12/06 01:13:54;;;;;;;15.88;11.73;;;;;;;-53.01;0.00;65763.66;10322417;28;20087;-68
2020/12/06 01:18:51;;;;;;;18.33;12.05;;;;;;;-50.40;0.00;65763.66;10322479;28;20079;-68
2020/12/06 01:23:50;;;;;;;20.55;11.77;;;;;;;-51.71;0.00;65763.66;10322160;28;20075;-69
2020/12/06 01:28:47;;;;;;;17.23;11.77;;;;;;;-58.22;0.00;65763.66;10321776;28;20060;-68
2020/12/06 01:33:46;;;;;;;20.83;12.13;;;;;;;9.54;0.00;65763.66;10321502;28;20076;-68
2020/12/06 01:38:44;;;;;;;16.13;12.02;;;;;;;9.54;0.00;65763.66;10321895;28;20083;-68
2020/12/06 01:43:53;;;;;;;12.18;10.32;;;;;;;-60.83;0.00;65763.66;10321271;28;20517;-67
2020/12/06 01:48:52;;;;;;;14.13;10.90;;;;;;;-86.87;0.00;65763.66;10321162;28;20040;-66
2020/12/06 01:53:51;;;;;;;12.70;10.38;;;;;;;-71.24;0.00;65763.66;10321490;28;20507;-69
2020/12/06 01:58:50;;;;;;;12.35;9.90;;;;;;;-81.66;0.00;65763.66;10320895;28;20528;-68
2020/12/06 02:03:51;;;;;;;20.35;11.57;;;;;;;-86.87;0.00;65763.66;10320941;28;20072;-68
2020/12/06 02:08:50;;;;;;;15.30;11.98;;;;;;;-97.29;0.00;65763.66;10320617;28;20051;-68
2020/12/06 02:13:48;;;;;;;14.00;12.00;;;;;;;-103.80;0.00;65763.66;10320621;28;20091;-68
2020/12/06 02:18:46;;;;;;;16.25;12.27;;;;;;;-111.61;0.00;65763.66;10320655;28;20080;-67
2020/12/06 02:23:45;;;;;;;13.77;10.35;;;;;;;-105.10;0.00;65763.66;10320115;28;20382;-67
2020/12/06 02:28:42;;;;;;;15.55;10.82;;;;;;;-115.51;0.00;65763.66;10319550;28;20040;-67
2020/12/06 02:33:40;;;;;;;17.83;10.80;;;;;;;-112.91;0.00;65763.66;10319277;28;20072;-69
2020/12/06 02:38:38;;;;;;;20.02;11.80;;;;;;;-120.72;0.00;65763.66;10319125;28;20036;-69
2020/12/06 02:43:37;;;;;;;19.30;11.85;;;;;;;-119.42;0.00;65763.66;10319871;28;20501;-69
2020/12/06 02:48:34;;;;;;;22.77;13.38;;;;;;;-125.93;0.00;65763.66;10318957;28;20045;-69
2020/12/06 02:53:32;;;;;;;18.70;12.35;;;;;;;-132.44;0.00;65763.66;10317937;28;20471;-69
2020/12/06 02:58:30;;;;;;;17.13;11.63;;;;;;;-128.53;0.00;65763.66;10317834;28;20529;-67
2020/12/06 03:03:29;;;;;;;19.05;12.48;;;;;;;9.54;0.00;65763.66;10317948;28;20052;-67
2020/12/06 03:08:26;;;;;;;16.92;12.00;;;;;;;9.54;0.00;65763.66;10318037;28;20509;-68
2020/12/06 03:13:24;;;;;;;16.17;11.40;;;;;;;9.54;0.00;65763.66;10317894;28;20530;-68
2020/12/06 03:18:22;;;;;;;19.90;12.73;;;;;;;-138.94;0.00;65763.66;10317708;28;20044;-68
2020/12/06 03:23:21;;;;;;;19.90;11.85;;;;;;;9.54;0.00;65763.66;10317291;28;20048;-68
2020/12/06 03:28:19;;;;;;;22.65;10.90;;;;;;;-138.94;0.00;65763.66;10317698;28;20064;-68
2020/12/06 03:33:17;;;;;;;20.55;12.90;;;;;;;-137.64;0.00;65763.66;10317235;28;20083;-68
2020/12/06 03:38:15;;;;;;;22.65;13.40;;;;;;;-123.32;0.00;65763.66;10315580;28;20048;-68
2020/12/06 03:43:13;;;;;;;27.70;16.73;;;;;;;-123.32;0.00;65763.66;10316502;28;20048;-68
2020/12/06 03:48:11;;;;;;;21.73;12.82;;;;;;;-137.64;0.00;65763.66;10316809;28;20046;-67
2020/12/06 03:53:09;;;;;;;21.35;14.57;;;;;;;181.77;0.00;65763.66;10316172;28;20075;-68
2020/12/06 03:58:07;;;;;;;22.73;12.82;;;;;;;-136.34;0.00;65763.66;10316175;28;20055;-69
2020/12/06 04:03:06;;;;;;;20.33;12.23;;;;;;;170.02;0.00;65763.66;10316339;28;20417;-69
2020/12/06 04:08:03;;;;;;;21.00;12.05;;;;;;;8.24;0.00;65763.66;10325769;28;20052;-68
2020/12/06 04:13:01;;;;;;;20.02;12.00;;;;;;;171.33;0.00;65763.66;10329725;28;20079;-70
2020/12/06 04:17:59;;;;;;;19.30;11.45;;;;;;;180.47;0.00;65763.66;10329326;28;20501;-69
2020/12/06 04:22:57;;;;;;;16.70;10.43;;;;;;;170.02;0.00;65763.66;10329510;28;20040;-70
2020/12/06 04:27:55;;;;;;;22.98;13.98;;;;;;;163.49;0.00;65763.66;10329474;28;20068;-69
2020/12/06 04:32:53;;;;;;;20.67;14.48;;;;;;;164.80;0.00;65763.66;10329164;28;20075;-67
2020/12/06 04:37:51;;;;;;;25.30;14.13;;;;;;;159.57;0.00;65763.66;10328158;28;20056;-66
2020/12/06 04:42:49;;;;;;;21.15;12.95;;;;;;;164.80;0.00;65763.66;10329336;28;20409;-68
2020/12/06 04:47:51;;;;;;;21.85;12.07;;;;;;;183.08;0.00;65763.66;10328973;28;20056;-68
2020/12/06 04:52:56;;;;;;;18.52;13.02;;;;;;;8.24;0.00;65763.66;10327815;28;20048;-67
2020/12/06 04:57:56;;;;;;;;;;;;;;;160.88;0.00;65763.66;10329121;28;20060;-68
2020/12/06 05:02:58;;;;;;;19.85;11.90;;;;;;;162.19;0.00;65763.66;10329289;28;19920;-68
2020/12/06 05:08:00;;;;;;;19.33;11.70;;;;;;;187.00;0.00;65763.66;10328801;28;20429;-68
2020/12/06 05:12:59;;;;;;;25.02;17.00;;;;;;;181.77;0.00;65763.66;10328720;28;20075;-68
2020/12/06 05:17:58;;;;;;;22.33;13.25;;;;;;;158.27;0.00;65763.66;10325256;28;20044;-68
2020/12/06 05:22:59;;;;;;;22.15;15.48;;;;;;;153.05;0.00;65763.66;10321004;28;20052;-68
2020/12/06 05:27:57;;;;;;;15.65;13.02;;;;;;;132.16;0.00;65763.66;10322118;28;20044;-68
2020/12/06 05:32:57;;;;;;;20.83;15.30;;;;;;;126.94;0.00;65763.66;10321484;28;20490;-68
2020/12/06 05:37:54;;;;;;;30.05;22.02;;;;;;;120.41;0.00;65763.66;10321144;28;20044;-68
2020/12/06 05:42:53;;;;;;;21.58;13.55;;;;;;;-144.15;0.00;65763.66;10321569;28;20524;-69
2020/12/06 05:47:52;;;;;;;22.25;15.23;;;;;;;-144.15;0.00;65763.66;10321186;28;20068;-69
2020/12/06 05:52:57;;;;;;;21.77;14.75;;;;;;;-144.15;0.00;65763.66;10321235;28;20475;-69
2020/12/06 05:57:55;;;;;;;;;;;;;;;-144.15;0.00;65763.66;10321704;28;20508;-69
2020/12/06 06:02:57;;;;;;;19.67;14.75;;;;;;;8.24;0.00;65763.66;10320598;28;19920;-69
2020/12/06 06:08:01;;;;;;;22.80;14.00;;;;;;;107.36;0.00;65763.66;10320157;28;20087;-69
2020/12/06 06:13:03;;;;;;;26.42;17.67;;;;;;;-144.15;0.00;65763.66;10320750;28;20473;-69
2020/12/06 06:18:01;;;;;;;22.52;13.77;;;;;;;-144.15;0.00;65763.66;10320493;28;20421;-69
2020/12/06 06:23:01;;;;;;;20.17;12.68;;;;;;;-144.15;0.00;65763.66;10319776;28;20048;-68
2020/12/06 06:27:59;;;;;;;25.13;16.17;;;;;;;-144.15;0.00;65763.66;10320060;28;20045;-70
2020/12/06 06:32:57;;;;;;;38.65;25.02;;;;;;;-144.15;0.00;65763.66;10319370;28;20107;-69
2020/12/06 06:37:55;;;;;;;24.85;18.88;;;;;;;-144.15;0.00;65763.66;10319866;28;20051;-69
2020/12/06 06:42:55;;;;;;;25.30;16.08;;;;;;;-144.15;0.00;65763.66;10319288;28;20064;-69
2020/12/06 06:47:54;;;;;;;32.97;20.25;;;;;;;-144.15;0.00;65763.66;10318705;28;20417;-69
2020/12/06 06:52:56;;;;;;;35.92;23.23;;;;;;;-144.15;0.00;65763.66;10318268;28;20078;-69
2020/12/06 06:57:57;;;;;;;27.58;17.95;;;;;;;-144.15;0.00;65763.66;10318644;28;20057;-69
2020/12/06 07:02:54;;;;;;;28.90;19.73;;;;;;;-144.15;0.00;65763.66;10317717;28;20068;-69
2020/12/06 07:07:53;;;;;;;27.35;16.65;;;;;;;-144.15;0.00;65763.66;10318598;28;20044;-69
2020/12/06 07:12:51;;;;;;;28.55;18.83;;;;;;;-144.15;0.00;65763.66;10318023;28;20103;-68
2020/12/06 07:17:52;;;;;;;22.73;17.40;;;;;;;4.33;0.00;65763.66;10317432;28;20044;-67
2020/12/06 07:22:50;;;;;;;29.33;18.92;;;;;;;-144.15;0.00;65763.66;10317565;28;20056;-68
2020/12/06 07:27:48;;;;;;;33.55;19.05;;;;;;;-144.15;0.00;65763.66;10317319;28;20498;-68
2020/12/06 07:32:46;;;;;;;49.92;24.33;;;;;;;-32.16;0.00;65763.66;10316595;28;20093;-67
2020/12/06 07:37:45;;;;;;;32.22;22.05;;;;;;;-144.15;0.00;65763.66;10316950;28;20048;-68
2020/12/06 07:42:43;;;;;;;42.67;24.58;;;;;;;-144.15;0.00;65763.66;10316885;28;20048;-69
2020/12/06 07:47:42;;;;;;;45.10;26.42;;;;;;;-144.15;0.00;65763.66;10322171;28;20044;-68
2020/12/06 07:52:40;;;;;;;42.08;24.60;;;;;;;-144.15;0.00;65763.66;10311536;28;20096;-67
2020/12/06 07:57:49;;;;;;;35.58;22.90;;;;;;;-144.15;0.00;65763.66;10327463;28;20075;-67
2020/12/06 08:02:54;;;;;;;35.70;25.20;;;;;;;-144.15;0.00;65763.66;10343270;28;20142;-69
2020/12/06 08:07:57;;;;;;;36.67;22.63;;;;;;;-144.15;0.00;65763.66;10350669;28;20098;-67
2020/12/06 08:13:00;;;;;;;31.92;21.02;;;;;;;-144.15;0.00;65763.66;10350935;28;20540;-68
2020/12/06 08:18:11;;;;;;;30.45;20.02;;;;;;;-144.15;0.00;65763.66;10350965;28;20087;-68
2020/12/06 08:23:09;;;;;;;38.72;27.77;;;;;;;-144.15;0.00;65763.66;10354359;28;20067;-69
2020/12/06 08:28:07;;;;;;;32.95;20.45;;;;;;;-144.15;0.00;65763.66;10321038;28;20330;-68
2020/12/06 08:33:08;;;;;;;35.20;24.92;;;;;;;-144.15;0.00;65763.66;10328665;28;20091;-68
2020/12/06 08:38:36;;;;;;;29.13;22.50;;;;;;;-144.15;0.00;65763.66;10328308;28;20083;-68
2020/12/06 08:43:43;;;;;;;41.10;26.70;;;;;;;-144.15;0.00;65763.66;10324814;28;20094;-67
2020/12/06 08:48:44;;;;;;;47.90;32.00;;;;;;;-144.15;0.00;65763.66;10324844;28;20091;-68
2020/12/06 08:53:47;;;;;;;52.95;34.30;;;;;;;-144.15;0.00;65763.66;10340503;28;20072;-66
2020/12/06 08:58:46;;;;;;;41.38;25.60;;;;;;;-144.15;0.00;65763.66;10330728;28;20106;-67
2020/12/06 09:03:43;;;;;;;37.47;25.00;;;;;;;-144.15;0.00;65763.66;10331517;28;20068;-67
2020/12/06 09:08:41;;;;;;;35.78;25.35;;;;;;;-144.15;0.00;65763.66;10333494;28;20076;-67
2020/12/06 09:13:39;;;;;;;39.80;24.15;;;;;;;-144.15;0.00;65763.66;10354691;28;20044;-68
2020/12/06 09:18:38;;;;;;;57.78;37.60;;;;;;;-144.15;0.00;65763.66;10363847;28;20578;-68
2020/12/06 09:23:36;;;;;;;56.70;34.75;;;;;;;-144.15;0.00;65763.66;10363136;28;20063;-68
2020/12/06 09:28:34;;;;;;;50.60;35.45;;;;;;;-144.15;0.00;65763.66;10363060;28;20036;-69
2020/12/06 09:33:32;;;;;;;50.00;31.35;;;;;;;-144.15;0.00;65763.66;10362437;28;20490;-69
2020/12/06 09:38:31;;;;;;;37.13;26.33;;;;;;;-144.15;0.00;65763.66;10362841;28;20091;-69
2020/12/06 09:43:29;;;;;;;33.88;24.80;;;;;;;-144.15;0.00;65763.66;10362828;28;20485;-68
2020/12/06 09:48:26;;;;;;;34.03;21.95;;;;;;;-144.15;0.00;65763.66;10362510;28;20460;-69
2020/12/06 09:53:24;;;;;;;60.10;40.53;;;;;;;-144.15;0.00;65763.66;10351443;28;20448;-66
2020/12/06 09:58:23;;;;;;;33.28;24.30;;;;;;;-144.15;0.00;65763.66;10327515;28;21854;-69
2020/12/06 10:03:21;;;;;;;35.70;24.65;;;;;;;-144.15;0.00;65763.66;10329101;28;20064;-69
2020/12/06 10:08:18;;;;;;;33.63;23.63;;;;;;;-144.15;0.00;65763.66;10329758;28;20469;-69
2020/12/06 10:13:17;;;;;;;26.52;19.80;;;;;;;-144.15;0.00;65763.66;10333821;28;20071;-66
2020/12/06 10:18:16;;;;;;;31.05;20.90;;;;;;;-144.15;0.00;65763.66;10322757;28;20079;-68
2020/12/06 10:23:14;;;;;;;28.80;19.20;;;;;;;-144.15;0.00;65763.66;10325112;28;20598;-68
2020/12/06 10:28:11;;;;;;;22.98;18.65;;;;;;;-144.15;0.00;65763.66;10327729;28;20080;-67
2020/12/06 10:33:09;;;;;;;22.70;17.67;;;;;;;-144.15;0.00;65763.66;10335014;28;20473;-68
2020/12/06 10:38:08;;;;;;;38.75;26.27;;;;;;;-144.15;0.00;65763.66;10340029;28;20051;-67
2020/12/06 10:43:06;;;;;;;33.28;22.92;;;;;;;-144.15;0.00;65763.66;10357273;28;20611;-66
2020/12/06 10:48:07;;;;;;;29.85;20.10;;;;;;;-144.15;0.00;65763.66;10318526;28;20068;-67
2020/12/06 10:53:04;;;;;;;20.90;18.67;;;;;;;-144.15;0.00;65763.66;10329551;28;20446;-68
2020/12/06 10:58:03;;;;;;;29.33;20.27;;;;;;;-144.15;0.00;65763.66;10324882;28;20102;-66
2020/12/06 11:03:01;;;;;;;26.65;20.45;;;;;;;-144.15;0.00;65763.66;10317464;28;20063;-67
2020/12/06 11:07:58;;;;;;;24.73;18.17;;;;;;;-144.15;0.00;65763.66;10333782;28;20052;-67
2020/12/06 11:12:56;;;;;;;26.20;17.42;;;;;;;-144.15;0.00;65763.66;10327064;28;20067;-68
2020/12/06 11:17:55;;;;;;;26.55;20.70;;;;;;;-144.15;0.00;65763.66;10357686;28;20106;-67
2020/12/06 11:22:53;;;;;;;18.83;14.75;;;;;;;-144.15;0.00;65763.66;10338723;28;20064;-66
2020/12/06 11:27:51;;;;;;;20.95;15.43;;;;;;;-144.15;0.00;65763.66;10318414;28;20068;-67
2020/12/06 11:32:48;;;;;;;15.70;13.05;;;;;;;-144.15;0.00;65763.66;10331673;28;20096;-65
2020/12/06 11:37:47;;;;;;;22.52;13.45;;;;;;;-144.15;0.00;65763.66;10335898;28;20064;-66
2020/12/06 11:42:45;;;;;;;21.23;17.25;;;;;;;-144.15;0.00;65763.66;10329122;28;20070;-66
2020/12/06 11:47:43;;;;;;;32.72;26.48;;;;;;;-144.15;0.00;65763.66;10323329;28;20063;-68
2020/12/06 11:52:43;;;;;;;28.50;21.25;;;;;;;-144.15;0.00;65763.66;10315517;28;20055;-65
2020/12/06 11:57:42;;;;;;;21.67;15.00;;;;;;;-144.15;0.00;65763.66;10330054;28;20449;-67
2020/12/06 12:02:41;;;;;;;29.63;20.30;;;;;;;-144.15;0.00;65763.66;10324710;28;20087;-66
2020/12/06 12:07:39;;;;;;;34.85;24.42;;;;;;;-144.15;0.00;65763.66;10334928;28;20083;-66
2020/12/06 12:12:38;;;;;;;46.22;39.30;;;;;;;-144.15;0.00;65763.66;10335491;28;20075;-66
2020/12/06 12:17:37;;;;;;;34.10;28.88;;;;;;;-144.15;0.00;65763.66;10318791;28;20072;-67
2020/12/06 12:22:35;;;;;;;47.75;31.15;;;;;;;-144.15;0.00;65763.66;10337843;28;20071;-69
2020/12/06 12:27:33;;;;;;;19.75;14.23;;;;;;;-144.15;0.00;65763.66;10359429;28;20051;-68
2020/12/06 12:32:31;;;;;;;23.15;17.08;;;;;;;-144.15;0.00;65763.66;10333205;28;20079;-69
2020/12/06 12:37:29;;;;;;;29.75;20.23;;;;;;;-144.15;0.00;65763.66;10343070;28;20084;-70
2020/12/06 12:42:28;;;;;;;27.27;18.20;;;;;;;-144.15;0.00;65763.66;10336673;28;20063;-68
2020/12/06 12:47:27;;;;;;;29.75;20.20;;;;;;;-144.15;0.00;65763.66;10342442;28;20060;-69
2020/12/06 12:52:25;;;;;;;28.17;18.83;;;;;;;-144.15;0.00;65763.66;10324946;28;20498;-70
2020/12/06 12:57:24;;;;;;;25.15;17.20;;;;;;;-144.15;0.00;65763.66;10340724;28;20071;-69
2020/12/06 13:02:22;;;;;;;21.33;16.50;;;;;;;-144.15;0.00;65763.66;10342746;28;20078;-69
2020/12/06 13:07:19;;;;;;;19.33;14.45;;;;;;;-144.15;0.00;65763.66;10340640;28;20063;-66
2020/12/06 13:12:17;;;;;;;20.63;15.07;;;;;;;-144.15;0.00;65763.66;10330828;28;20073;-68
2020/12/06 13:17:16;;;;;;;42.47;30.80;;;;;;;-144.15;0.00;65763.66;10321742;28;20079;-68
2020/12/06 13:22:13;;;;;;;55.08;39.80;;;;;;;-144.15;0.00;65763.66;10341122;28;20493;-69
2020/12/06 13:27:15;;;;;;;43.72;29.60;;;;;;;-144.15;0.00;65763.66;10356049;28;20040;-69
2020/12/06 13:32:13;;;;;;;58.33;31.83;;;;;;;-144.15;0.00;65763.66;10329016;28;20079;-69
2020/12/06 13:37:12;;;;;;;56.20;34.83;;;;;;;-144.15;0.00;65763.66;10343246;28;20075;-69
2020/12/06 13:42:13;;;;;;;51.72;33.38;;;;;;;-144.15;0.00;65763.66;10347766;28;20497;-69
2020/12/06 13:47:11;;;;;;;32.53;23.33;;;;;;;-144.15;0.00;65763.66;10329502;28;20059;-69
2020/12/06 13:52:09;;;;;;;95.43;55.17;;;;;;;-144.15;0.00;65763.66;10334441;28;20408;-69
2020/12/06 13:57:08;;;;;;;34.03;24.52;;;;;;;-144.15;0.00;65763.66;10330545;28;20155;-69
2020/12/06 14:02:06;;;;;;;48.42;34.08;;;;;;;-144.15;0.00;65763.66;10335937;28;20079;-68
2020/12/06 14:07:04;;;;;;;87.82;47.75;;;;;;;-144.15;0.00;65763.66;10322810;28;20048;-69
2020/12/06 14:12:03;;;;;;;72.88;49.15;;;;;;;-144.15;0.00;65763.66;10323310;28;20825;-69
2020/12/06 14:17:04;;;;;;;58.45;45.17;;;;;;;-144.15;0.00;65763.66;10332836;28;20083;-68
2020/12/06 14:22:03;;;;;;;33.67;21.88;;;;;;;-144.15;0.00;65763.66;10317134;28;20063;-69
2020/12/06 14:27:01;;;;;;;32.75;19.98;;;;;;;-144.15;0.00;65763.66;10318633;28;20078;-68
2020/12/06 14:31:59;;;;;;;34.03;21.17;;;;;;;-144.15;0.00;65763.66;10327226;28;20075;-68
2020/12/06 14:36:58;;;;;;;49.95;33.13;;;;;;;-144.15;0.00;65763.66;10337589;28;20461;-67
2020/12/06 14:41:55;;;;;;;32.83;24.10;;;;;;;-144.15;0.00;65763.66;10322218;28;20040;-67
2020/12/06 14:46:53;;;;;;;38.35;29.55;;;;;;;-144.15;0.00;65763.66;10340537;28;20052;-68
2020/12/06 14:51:51;;;;;;;43.38;29.35;;;;;;;-144.15;0.00;65763.66;10331191;28;20494;-67
2020/12/06 14:56:50;;;;;;;33.97;19.25;;;;;;;-144.15;0.00;65763.66;10335063;28;20072;-68
2020/12/06 15:01:50;;;;;;;29.67;19.67;;;;;;;-144.15;0.00;65763.66;10328260;28;20513;-65
2020/12/06 15:06:48;;;;;;;39.05;23.42;;;;;;;-144.15;0.00;65763.66;10328236;28;20533;-68
2020/12/06 15:11:46;;;;;;;37.63;23.25;;;;;;;-144.15;0.00;65763.66;10330143;28;20517;-66
2020/12/06 15:16:45;;;;;;;36.78;22.23;;;;;;;-144.15;0.00;65763.66;10330077;28;20768;-65
2020/12/06 15:21:43;;;;;;;40.15;27.52;;;;;;;-144.15;0.00;65763.66;10336216;28;20067;-65
2020/12/06 15:26:41;;;;;;;43.80;28.83;;;;;;;-144.15;0.00;65763.66;10333417;28;20509;-67
2020/12/06 15:31:39;;;;;;;38.70;25.60;;;;;;;-144.15;0.00;65763.66;10328683;28;20075;-66
2020/12/06 15:36:38;;;;;;;36.97;23.85;;;;;;;-144.15;0.00;65763.66;10320461;28;20140;-66
2020/12/06 15:41:36;;;;;;;39.88;21.27;;;;;;;-144.15;0.00;65763.66;10337310;28;20374;-65
2020/12/06 15:46:34;;;;;;;50.08;33.78;;;;;;;-144.15;0.00;65763.66;10330063;28;20472;-64
2020/12/06 15:51:33;;;;;;;46.45;31.40;;;;;;;-144.15;0.00;65763.66;10320945;28;20118;-65
2020/12/06 15:56:32;;;;;;;34.70;20.05;;;;;;;-144.15;0.00;65763.66;10318461;28;20091;-66
2020/12/06 16:01:30;;;;;;;36.05;21.60;;;;;;;-144.15;0.00;65763.66;10330086;28;20556;-64
2020/12/06 16:06:28;;;;;;;53.25;34.28;;;;;;;-144.15;0.00;65763.66;10334992;28;20068;-63
2020/12/06 16:11:27;;;;;;;36.75;21.50;;;;;;;-144.15;0.00;65763.66;10341248;28;20086;-63
2020/12/06 16:16:26;;;;;;;33.83;22.10;;;;;;;-144.15;0.00;65763.66;10339108;28;20086;-66
2020/12/06 16:21:29;;;;;;;30.40;18.15;;;;;;;-144.15;0.00;65763.66;10323571;28;20067;-64
2020/12/06 16:26:29;;;;;;;28.30;16.77;;;;;;;-144.15;0.00;65763.66;10332169;28;20068;-65
2020/12/06 16:31:33;;;;;;;33.35;19.75;;;;;;;-144.15;0.00;65763.66;10332309;28;20071;-64
2020/12/06 16:36:31;;;;;;;28.58;15.52;;;;;;;-144.15;0.00;65763.66;10330751;28;20075;-65
2020/12/06 16:41:29;;;;;;;28.73;16.40;;;;;;;-144.15;0.00;65763.66;10326178;28;20499;-65
2020/12/06 16:46:27;;;;;;;28.35;19.60;;;;;;;-144.15;0.00;65763.66;10331326;28;20060;-66
2020/12/06 16:51:26;;;;;;;29.98;16.20;;;;;;;-144.15;0.00;65763.66;10323156;28;20064;-63
2020/12/06 16:56:23;;;;;;;22.02;16.23;;;;;;;-144.15;0.00;65763.66;10327269;28;20080;-65
2020/12/06 17:01:21;;;;;;;36.58;18.15;;;;;;;-144.15;0.00;65763.66;10318095;28;20052;-64
2020/12/06 17:06:19;;;;;;;32.92;19.38;;;;;;;-144.15;0.00;65763.66;10314546;28;20064;-65
2020/12/06 17:11:18;;;;;;;29.83;18.80;;;;;;;-144.15;0.00;65763.66;10315353;28;20036;-64
2020/12/06 17:16:16;;;;;;;26.42;19.02;;;;;;;-144.15;0.00;65763.66;10334490;28;20536;-65
2020/12/06 17:21:17;;;;;;;31.42;22.40;;;;;;;-144.15;0.00;65763.66;10330292;28;20480;-64
2020/12/06 17:26:18;;;;;;;37.30;21.80;;;;;;;-144.15;0.00;65763.66;10340525;28;20068;-63
2020/12/06 17:31:16;;;;;;;38.42;28.13;;;;;;;-144.15;0.00;65763.66;10330328;28;20064;-66
2020/12/06 17:36:14;;;;;;;43.80;27.00;;;;;;;-144.15;0.00;65763.66;10332629;28;20071;-66
2020/12/06 17:41:13;;;;;;;23.45;14.45;;;;;;;-144.15;0.00;65763.66;10323824;28;20080;-65
2020/12/06 17:46:10;;;;;;;28.90;16.95;;;;;;;-144.15;0.00;65763.66;10319590;28;20075;-66
2020/12/06 17:51:09;;;;;;;24.42;14.77;;;;;;;-144.15;0.00;65763.66;10319124;28;20466;-65
2020/12/06 17:56:07;;;;;;;27.08;15.27;;;;;;;-144.15;0.00;65763.66;10347770;28;20531;-64
2020/12/06 18:01:05;;;;;;;36.60;23.98;;;;;;;-144.15;0.00;65763.66;10335766;28;20102;-65
2020/12/06 18:06:03;;;;;;;26.30;14.02;;;;;;;-144.15;0.00;65763.66;10339244;28;20044;-66
2020/12/06 18:11:02;;;;;;;25.20;15.93;;;;;;;-144.15;0.00;65763.66;10353450;28;20064;-66
2020/12/06 18:16:00;;;;;;;20.48;14.40;;;;;;;-144.15;0.00;65763.66;10328288;28;20079;-66
2020/12/06 18:20:59;;;;;;;24.90;19.05;;;;;;;-144.15;0.00;65763.66;10322872;28;20071;-66
2020/12/06 18:25:56;;;;;;;40.50;26.45;;;;;;;-144.15;0.00;65763.66;10319034;28;20052;-67
2020/12/06 18:30:55;;;;;;;28.50;18.13;;;;;;;-144.15;0.00;65763.66;10319692;28;20057;-66
2020/12/06 18:35:53;;;;;;;25.63;17.40;;;;;;;-144.15;0.00;65763.66;10319566;28;20305;-65
2020/12/06 18:40:51;;;;;;;28.90;23.25;;;;;;;-144.15;0.00;65763.66;10319129;28;20049;-65
2020/12/06 18:45:48;;;;;;;30.75;17.27;;;;;;;-144.15;0.00;65763.66;10318958;28;20072;-66
2020/12/06 18:50:47;;;;;;;50.97;30.50;;;;;;;-144.15;0.00;65763.66;10318008;28;20049;-66
2020/12/06 18:55:45;;;;;;;28.33;20.50;;;;;;;-144.15;0.00;65763.66;10318391;28;20494;-68
2020/12/06 19:00:42;;;;;;;28.10;19.80;;;;;;;-144.15;0.00;65763.66;10318093;28;20056;-66
2020/12/06 19:05:41;;;;;;;34.03;24.10;;;;;;;-144.15;0.00;65763.66;10329503;28;20507;-66
2020/12/06 19:10:40;;;;;;;20.83;15.02;;;;;;;-144.15;0.00;65763.66;10346816;28;20071;-67
2020/12/06 19:15:38;;;;;;;23.20;16.73;;;;;;;-144.15;0.00;65763.66;10325810;28;20688;-67
2020/12/06 19:20:36;;;;;;;23.65;15.75;;;;;;;-144.15;0.00;65763.66;10333256;28;20071;-67
2020/12/06 19:25:33;;;;;;;29.90;17.25;;;;;;;-144.15;0.00;65763.66;10343642;28;20504;-65
2020/12/06 19:30:32;;;;;;;24.02;17.33;;;;;;;-144.15;0.00;65763.66;10324072;28;20060;-67
2020/12/06 19:35:30;;;;;;;22.48;14.98;;;;;;;-144.15;0.00;65763.66;10338732;28;20516;-68
2020/12/06 19:40:28;;;;;;;32.10;24.42;;;;;;;-144.15;0.00;65763.66;10338652;28;20067;-66
2020/12/06 19:45:28;;;;;;;34.75;19.90;;;;;;;-144.15;0.00;65763.66;10337450;28;20052;-68
2020/12/06 19:50:30;;;;;;;21.27;12.25;;;;;;;-144.15;0.00;65763.66;10317005;28;20056;-67
2020/12/06 19:55:28;;;;;;;22.13;15.38;;;;;;;-144.15;0.00;65763.66;10316169;28;20070;-66
2020/12/06 20:00:26;;;;;;;28.38;18.50;;;;;;;-144.15;0.00;65763.66;10344358;28;20087;-66
2020/12/06 20:05:24;;;;;;;21.42;13.85;;;;;;;-144.15;0.00;65763.66;10317770;28;20064;-65
2020/12/06 20:10:22;;;;;;;27.80;17.40;;;;;;;-144.15;0.00;65763.66;10316400;28;20052;-67
2020/12/06 20:15:20;;;;;;;24.45;15.10;;;;;;;-144.15;0.00;65763.66;10316492;28;20474;-67
2020/12/06 20:20:18;;;;;;;23.95;13.52;;;;;;;-144.15;0.00;65763.66;10315848;28;20051;-67
2020/12/06 20:25:15;;;;;;;17.98;11.50;;;;;;;-144.15;0.00;65763.66;10316060;28;20045;-67
2020/12/06 20:30:14;;;;;;;24.60;15.98;;;;;;;-144.15;0.00;65763.66;10316237;28;20127;-64
2020/12/06 20:35:14;;;;;;;21.77;13.93;;;;;;;-144.15;0.00;65763.66;10316403;28;20409;-67
2020/12/06 20:40:11;;;;;;;22.08;14.45;;;;;;;-144.15;0.00;65763.66;10316130;28;20537;-67
2020/12/06 20:45:09;;;;;;;21.58;11.32;;;;;;;-144.15;0.00;65763.66;10315630;28;20036;-67
2020/12/06 20:50:08;;;;;;;26.40;13.48;;;;;;;-144.15;0.00;65763.66;10320906;28;20067;-68
2020/12/06 20:55:05;;;;;;;20.70;12.93;;;;;;;-144.15;0.00;65763.66;10323422;28;20044;-67
2020/12/06 21:00:04;;;;;;;25.52;14.95;;;;;;;-144.15;0.00;65763.66;10322864;28;20076;-67
2020/12/06 21:05:02;;;;;;;29.83;16.17;;;;;;;-144.15;0.00;65763.66;10322835;28;20080;-67
2020/12/06 21:10:01;;;;;;;24.33;16.10;;;;;;;-144.15;0.00;65763.66;10322999;28;20485;-66
2020/12/06 21:14:59;;;;;;;22.20;12.75;;;;;;;-144.15;0.00;65763.66;10322809;28;20525;-66
2020/12/06 21:19:57;;;;;;;25.73;14.88;;;;;;;-144.15;0.00;65763.66;10322359;28;20079;-67
2020/12/06 21:25:05;;;;;;;26.67;15.35;;;;;;;-144.15;0.00;65763.66;10322147;28;20052;-67
2020/12/06 21:30:06;;;;;;;17.98;11.35;;;;;;;-144.15;0.00;65763.66;10321964;28;20068;-68
2020/12/06 21:35:05;;;;;;;18.42;10.55;;;;;;;-144.15;0.00;65763.66;10321609;28;20041;-67
2020/12/06 21:40:05;;;;;;;19.08;12.05;;;;;;;-144.15;0.00;65763.66;10321583;28;20080;-67
2020/12/06 21:45:03;;;;;;;32.05;17.02;;;;;;;-144.15;0.00;65763.66;10321271;28;20409;-68
2020/12/06 21:50:01;;;;;;;29.10;14.93;;;;;;;-144.15;0.00;65763.66;10320228;28;20049;-67
2020/12/06 21:54:59;;;;;;;22.35;13.88;;;;;;;-144.15;0.00;65763.66;10321458;28;20457;-67
2020/12/06 21:59:57;;;;;;;29.02;17.38;;;;;;;-144.15;0.00;65763.66;10319830;28;20080;-67
2020/12/06 22:04:55;;;;;;;19.55;12.80;;;;;;;-144.15;0.00;65763.66;10320398;28;20040;-67
2020/12/06 22:09:53;;;;;;;17.75;12.77;;;;;;;-144.15;0.00;65763.66;10320485;28;20051;-67
2020/12/06 22:14:51;;;;;;;21.40;13.15;;;;;;;-144.15;0.00;65763.66;10320203;28;20085;-67
2020/12/06 22:19:49;;;;;;;21.83;12.32;;;;;;;-144.15;0.00;65763.66;10319820;28;20457;-67
2020/12/06 22:24:47;;;;;;;18.10;11.07;;;;;;;-144.15;0.00;65763.66;10319008;28;20055;-65
2020/12/06 22:29:45;;;;;;;19.55;12.68;;;;;;;-144.15;0.00;65763.66;10319991;28;20544;-66